sensor_id;sensor_type;location;lat;lon;timestamp;P1;P2;P0
65383;PMS5003;51986;52.788;41.368;2023-04-21T00:01:57;33.50;28.00;22.50
65383;PMS5003;51986;52.788;41.368;2023-04-21T00:04:24;32.50;28.00;22.00
65383;PMS5003;51986;52.788;41.368;2023-04-21T00:06:52;33.50;28.50;23.00
65383;PMS5003;51986;52.788;41.368;2023-04-21T00:09:20;35.75;30.00;24.00
65383;PMS5003;51986;52.788;41.368;2023-04-21T00:11:47;35.00;29.00;23.00
65383;PMS5003;51986;52.788;41.368;2023-04-21T00:14:14;36.50;31.00;24.00
65383;PMS5003;51986;52.788;41.368;2023-04-21T00:16:41;33.75;28.00;22.00
65383;PMS5003;51986;52.788;41.368;2023-04-21T00:19:08;35.75;30.00;24.00
65383;PMS5003;51986;52.788;41.368;2023-04-21T00:21:35;35.00;29.00;23.00
65383;PMS5003;51986;52.788;41.368;2023-04-21T00:24:02;35.00;29.50;23.00
65383;PMS5003;51986;52.788;41.368;2023-04-21T00:26:29;33.00;28.50;22.25
65383;PMS5003;51986;52.788;41.368;2023-04-21T00:28:56;31.50;27.00;21.25
65383;PMS5003;51986;52.788;41.368;2023-04-21T00:31:23;30.50;26.00;21.00
65383;PMS5003;51986;52.788;41.368;2023-04-21T00:33:50;35.00;28.75;23.00
65383;PMS5003;51986;52.788;41.368;2023-04-21T00:36:16;36.00;30.00;23.00
65383;PMS5003;51986;52.788;41.368;2023-04-21T00:38:45;31.50;27.50;21.50
65383;PMS5003;51986;52.788;41.368;2023-04-21T00:41:13;33.00;28.00;23.00
65383;PMS5003;51986;52.788;41.368;2023-04-21T00:43:58;34.50;29.50;23.00
65383;PMS5003;51986;52.788;41.368;2023-04-21T00:46:33;36.00;30.00;23.00
65383;PMS5003;51986;52.788;41.368;2023-04-21T00:49:04;36.00;30.50;24.00
65383;PMS5003;51986;52.788;41.368;2023-04-21T00:51:33;33.50;28.00;22.00
65383;PMS5003;51986;52.788;41.368;2023-04-21T00:54:05;33.50;28.00;23.00
65383;PMS5003;51986;52.788;41.368;2023-04-21T00:56:33;34.00;29.00;23.00
65383;PMS5003;51986;52.788;41.368;2023-04-21T00:59:01;34.75;29.00;23.00
65383;PMS5003;51986;52.788;41.368;2023-04-21T01:01:30;32.00;27.00;22.00
65383;PMS5003;51986;52.788;41.368;2023-04-21T01:03:58;33.50;28.00;23.00
65383;PMS5003;51986;52.788;41.368;2023-04-21T01:06:31;32.00;27.00;22.00
65383;PMS5003;51986;52.788;41.368;2023-04-21T01:08:59;33.00;28.00;22.00
65383;PMS5003;51986;52.788;41.368;2023-04-21T01:11:26;33.00;28.00;22.00
65383;PMS5003;51986;52.788;41.368;2023-04-21T01:13:53;38.50;32.00;24.75
65383;PMS5003;51986;52.788;41.368;2023-04-21T01:16:21;36.75;30.25;23.25
65383;PMS5003;51986;52.788;41.368;2023-04-21T01:18:49;34.00;28.75;23.00
65383;PMS5003;51986;52.788;41.368;2023-04-21T01:21:17;34.50;29.50;22.50
65383;PMS5003;51986;52.788;41.368;2023-04-21T01:23:43;33.00;28.00;22.00
65383;PMS5003;51986;52.788;41.368;2023-04-21T01:26:10;35.00;29.00;23.00
65383;PMS5003;51986;52.788;41.368;2023-04-21T01:28:38;33.25;28.25;22.50
65383;PMS5003;51986;52.788;41.368;2023-04-21T01:31:05;36.00;29.00;23.00
65383;PMS5003;51986;52.788;41.368;2023-04-21T01:33:31;30.00;25.75;20.00
65383;PMS5003;51986;52.788;41.368;2023-04-21T01:35:58;32.50;28.00;22.25
65383;PMS5003;51986;52.788;41.368;2023-04-21T01:38:26;36.00;31.00;24.00
65383;PMS5003;51986;52.788;41.368;2023-04-21T01:40:53;36.25;31.00;24.00
65383;PMS5003;51986;52.788;41.368;2023-04-21T01:43:21;31.50;26.75;21.00
65383;PMS5003;51986;52.788;41.368;2023-04-21T01:45:50;31.50;27.00;21.00
65383;PMS5003;51986;52.788;41.368;2023-04-21T01:48:18;29.00;25.75;19.25
65383;PMS5003;51986;52.788;41.368;2023-04-21T01:50:45;33.00;28.50;22.00
65383;PMS5003;51986;52.788;41.368;2023-04-21T01:53:12;33.00;28.00;22.00
65383;PMS5003;51986;52.788;41.368;2023-04-21T01:55:39;35.25;29.00;23.00
65383;PMS5003;51986;52.788;41.368;2023-04-21T01:58:08;37.00;30.00;24.00
65383;PMS5003;51986;52.788;41.368;2023-04-21T02:00:35;36.00;30.00;23.00
65383;PMS5003;51986;52.788;41.368;2023-04-21T02:03:03;35.00;30.00;23.00
65383;PMS5003;51986;52.788;41.368;2023-04-21T02:05:30;36.00;29.75;23.00
65383;PMS5003;51986;52.788;41.368;2023-04-21T02:07:57;35.00;30.00;23.00
65383;PMS5003;51986;52.788;41.368;2023-04-21T02:10:24;35.00;29.00;23.00
65383;PMS5003;51986;52.788;41.368;2023-04-21T02:12:51;34.75;29.00;23.00
65383;PMS5003;51986;52.788;41.368;2023-04-21T02:15:18;34.25;29.00;23.00
65383;PMS5003;51986;52.788;41.368;2023-04-21T02:17:45;35.00;29.00;22.00
65383;PMS5003;51986;52.788;41.368;2023-04-21T02:20:12;35.00;29.00;22.50
65383;PMS5003;51986;52.788;41.368;2023-04-21T02:22:39;36.00;30.00;24.00
65383;PMS5003;51986;52.788;41.368;2023-04-21T02:25:06;34.50;28.50;22.50
65383;PMS5003;51986;52.788;41.368;2023-04-21T02:27:33;31.50;26.50;21.50
65383;PMS5003;51986;52.788;41.368;2023-04-21T02:30:00;33.00;28.00;22.75
65383;PMS5003;51986;52.788;41.368;2023-04-21T02:32:27;33.00;28.00;22.50
65383;PMS5003;51986;52.788;41.368;2023-04-21T02:34:54;32.00;27.00;22.00
65383;PMS5003;51986;52.788;41.368;2023-04-21T02:37:22;34.00;27.50;22.00
65383;PMS5003;51986;52.788;41.368;2023-04-21T02:39:51;34.75;28.00;23.00
65383;PMS5003;51986;52.788;41.368;2023-04-21T02:42:18;35.00;29.00;23.00
65383;PMS5003;51986;52.788;41.368;2023-04-21T02:44:46;35.50;30.00;22.75
65383;PMS5003;51986;52.788;41.368;2023-04-21T02:47:14;34.50;28.50;22.50
65383;PMS5003;51986;52.788;41.368;2023-04-21T02:49:41;35.50;30.00;23.00
65383;PMS5003;51986;52.788;41.368;2023-04-21T02:52:10;35.50;30.00;23.00
65383;PMS5003;51986;52.788;41.368;2023-04-21T02:54:37;32.50;26.75;21.50
65383;PMS5003;51986;52.788;41.368;2023-04-21T02:57:04;32.25;27.50;22.00
65383;PMS5003;51986;52.788;41.368;2023-04-21T02:59:31;33.00;28.00;22.50
65383;PMS5003;51986;52.788;41.368;2023-04-21T03:01:58;32.75;28.00;22.00
65383;PMS5003;51986;52.788;41.368;2023-04-21T03:04:25;29.00;25.00;20.50
65383;PMS5003;51986;52.788;41.368;2023-04-21T03:06:53;32.25;27.50;21.50
65383;PMS5003;51986;52.788;41.368;2023-04-21T03:09:22;34.75;29.25;23.00
65383;PMS5003;51986;52.788;41.368;2023-04-21T03:11:49;34.00;29.00;23.00
65383;PMS5003;51986;52.788;41.368;2023-04-21T03:14:17;32.75;28.00;23.00
65383;PMS5003;51986;52.788;41.368;2023-04-21T03:16:44;33.00;28.00;23.00
65383;PMS5003;51986;52.788;41.368;2023-04-21T03:19:11;33.00;28.00;23.00
65383;PMS5003;51986;52.788;41.368;2023-04-21T03:21:38;35.25;30.00;24.00
65383;PMS5003;51986;52.788;41.368;2023-04-21T03:24:06;34.50;28.50;22.25
65383;PMS5003;51986;52.788;41.368;2023-04-21T03:26:34;35.00;29.50;23.00
65383;PMS5003;51986;52.788;41.368;2023-04-21T03:29:01;34.75;27.50;22.50
65383;PMS5003;51986;52.788;41.368;2023-04-21T03:31:28;31.00;26.25;21.50
65383;PMS5003;51986;52.788;41.368;2023-04-21T03:33:55;33.50;28.00;23.00
65383;PMS5003;51986;52.788;41.368;2023-04-21T03:36:23;34.00;29.00;23.00
65383;PMS5003;51986;52.788;41.368;2023-04-21T03:38:50;35.00;29.00;23.00
65383;PMS5003;51986;52.788;41.368;2023-04-21T03:41:17;35.00;29.00;23.00
65383;PMS5003;51986;52.788;41.368;2023-04-21T03:43:43;32.50;27.50;22.50
65383;PMS5003;51986;52.788;41.368;2023-04-21T03:46:17;31.25;27.25;22.00
65383;PMS5003;51986;52.788;41.368;2023-04-21T03:49:04;29.50;26.00;22.00
65383;PMS5003;51986;52.788;41.368;2023-04-21T03:51:49;31.25;27.00;22.00
65383;PMS5003;51986;52.788;41.368;2023-04-21T03:54:16;30.25;26.00;21.00
65383;PMS5003;51986;52.788;41.368;2023-04-21T03:56:43;32.00;27.50;22.50
65383;PMS5003;51986;52.788;41.368;2023-04-21T03:59:10;34.25;29.75;24.00
65383;PMS5003;51986;52.788;41.368;2023-04-21T04:01:37;33.00;28.50;22.00
65383;PMS5003;51986;52.788;41.368;2023-04-21T04:04:05;32.50;28.00;22.00
65383;PMS5003;51986;52.788;41.368;2023-04-21T04:06:33;34.00;29.00;23.00
65383;PMS5003;51986;52.788;41.368;2023-04-21T04:09:00;34.00;29.00;23.75
65383;PMS5003;51986;52.788;41.368;2023-04-21T04:11:28;30.00;27.00;21.75
65383;PMS5003;51986;52.788;41.368;2023-04-21T04:13:55;34.75;29.00;24.00
65383;PMS5003;51986;52.788;41.368;2023-04-21T04:16:22;28.75;25.50;20.50
65383;PMS5003;51986;52.788;41.368;2023-04-21T04:18:49;33.00;29.00;23.00
65383;PMS5003;51986;52.788;41.368;2023-04-21T04:21:16;33.75;29.00;23.00
65383;PMS5003;51986;52.788;41.368;2023-04-21T04:23:43;34.50;29.00;23.50
65383;PMS5003;51986;52.788;41.368;2023-04-21T04:26:10;35.00;29.25;24.00
65383;PMS5003;51986;52.788;41.368;2023-04-21T04:28:37;33.50;28.50;23.00
65383;PMS5003;51986;52.788;41.368;2023-04-21T04:31:04;34.00;28.00;23.00
65383;PMS5003;51986;52.788;41.368;2023-04-21T04:33:31;29.50;25.00;20.00
65383;PMS5003;51986;52.788;41.368;2023-04-21T04:35:58;33.50;28.50;23.00
65383;PMS5003;51986;52.788;41.368;2023-04-21T04:38:25;35.00;29.50;23.50
65383;PMS5003;51986;52.788;41.368;2023-04-21T04:40:53;35.75;30.00;24.00
65383;PMS5003;51986;52.788;41.368;2023-04-21T04:43:23;33.25;29.00;23.25
65383;PMS5003;51986;52.788;41.368;2023-04-21T04:45:50;31.75;27.50;22.00
65383;PMS5003;51986;52.788;41.368;2023-04-21T04:48:17;31.75;27.00;22.00
65383;PMS5003;51986;52.788;41.368;2023-04-21T04:50:44;35.75;29.00;24.00
65383;PMS5003;51986;52.788;41.368;2023-04-21T04:53:12;32.50;27.00;22.00
65383;PMS5003;51986;52.788;41.368;2023-04-21T04:55:39;33.00;28.00;23.00
65383;PMS5003;51986;52.788;41.368;2023-04-21T04:58:06;32.75;28.75;23.00
65383;PMS5003;51986;52.788;41.368;2023-04-21T05:00:33;33.50;29.00;23.50
65383;PMS5003;51986;52.788;41.368;2023-04-21T05:03:00;33.50;28.50;22.50
65383;PMS5003;51986;52.788;41.368;2023-04-21T05:05:27;32.50;27.50;22.50
65383;PMS5003;51986;52.788;41.368;2023-04-21T05:07:55;33.75;28.00;23.00
65383;PMS5003;51986;52.788;41.368;2023-04-21T05:10:22;34.25;29.00;23.00
65383;PMS5003;51986;52.788;41.368;2023-04-21T05:12:49;32.00;27.00;22.00
65383;PMS5003;51986;52.788;41.368;2023-04-21T05:15:16;29.50;25.75;21.50
65383;PMS5003;51986;52.788;41.368;2023-04-21T05:17:43;35.50;30.00;24.00
65383;PMS5003;51986;52.788;41.368;2023-04-21T05:20:29;31.00;26.50;21.50
65383;PMS5003;51986;52.788;41.368;2023-04-21T05:22:56;30.00;27.00;21.00
65383;PMS5003;51986;52.788;41.368;2023-04-21T05:25:23;32.50;27.75;22.50
65383;PMS5003;51986;52.788;41.368;2023-04-21T05:27:50;33.00;28.75;23.00
65383;PMS5003;51986;52.788;41.368;2023-04-21T05:30:17;33.75;28.75;23.00
65383;PMS5003;51986;52.788;41.368;2023-04-21T05:32:44;34.75;29.00;22.00
65383;PMS5003;51986;52.788;41.368;2023-04-21T05:35:10;33.00;28.00;22.00
65383;PMS5003;51986;52.788;41.368;2023-04-21T05:37:37;33.00;27.00;22.00
65383;PMS5003;51986;52.788;41.368;2023-04-21T05:40:04;30.50;26.00;20.00
65383;PMS5003;51986;52.788;41.368;2023-04-21T05:42:50;33.00;28.00;22.00
65383;PMS5003;51986;52.788;41.368;2023-04-21T05:45:17;29.25;25.00;21.00
65383;PMS5003;51986;52.788;41.368;2023-04-21T05:47:44;33.50;29.00;23.00
65383;PMS5003;51986;52.788;41.368;2023-04-21T05:50:11;30.00;25.50;20.75
65383;PMS5003;51986;52.788;41.368;2023-04-21T05:52:39;31.25;27.00;22.00
65383;PMS5003;51986;52.788;41.368;2023-04-21T05:55:06;34.00;29.50;24.00
65383;PMS5003;51986;52.788;41.368;2023-04-21T05:57:33;30.00;26.50;21.00
65383;PMS5003;51986;52.788;41.368;2023-04-21T06:00:00;32.00;27.00;22.00
65383;PMS5003;51986;52.788;41.368;2023-04-21T06:02:30;32.00;27.00;22.00
65383;PMS5003;51986;52.788;41.368;2023-04-21T06:04:57;32.75;27.75;22.00
65383;PMS5003;51986;52.788;41.368;2023-04-21T06:07:25;33.75;29.00;23.00
65383;PMS5003;51986;52.788;41.368;2023-04-21T06:10:12;34.00;28.00;23.00
65383;PMS5003;51986;52.788;41.368;2023-04-21T06:12:42;34.00;28.00;22.00
65383;PMS5003;51986;52.788;41.368;2023-04-21T06:15:10;32.25;27.00;22.00
65383;PMS5003;51986;52.788;41.368;2023-04-21T06:17:37;32.25;28.00;22.00
65383;PMS5003;51986;52.788;41.368;2023-04-21T06:20:04;32.00;27.00;22.00
65383;PMS5003;51986;52.788;41.368;2023-04-21T06:22:33;30.50;26.50;21.00
65383;PMS5003;51986;52.788;41.368;2023-04-21T06:25:03;31.00;26.50;22.00
65383;PMS5003;51986;52.788;41.368;2023-04-21T06:27:30;32.50;27.50;21.00
65383;PMS5003;51986;52.788;41.368;2023-04-21T06:29:58;36.00;30.75;24.00
65383;PMS5003;51986;52.788;41.368;2023-04-21T06:32:24;34.00;29.00;23.00
65383;PMS5003;51986;52.788;41.368;2023-04-21T06:34:52;33.50;28.75;22.25
65383;PMS5003;51986;52.788;41.368;2023-04-21T06:37:18;33.00;28.00;22.00
65383;PMS5003;51986;52.788;41.368;2023-04-21T06:39:46;32.00;27.50;22.00
65383;PMS5003;51986;52.788;41.368;2023-04-21T06:42:12;33.00;28.00;22.75
65383;PMS5003;51986;52.788;41.368;2023-04-21T06:44:42;31.50;27.50;21.50
65383;PMS5003;51986;52.788;41.368;2023-04-21T06:47:09;32.50;28.50;22.00
65383;PMS5003;51986;52.788;41.368;2023-04-21T06:49:38;31.50;26.50;21.50
65383;PMS5003;51986;52.788;41.368;2023-04-21T06:52:07;33.50;28.00;22.50
65383;PMS5003;51986;52.788;41.368;2023-04-21T06:54:34;34.00;28.00;23.00
65383;PMS5003;51986;52.788;41.368;2023-04-21T06:57:01;33.50;28.00;22.00
65383;PMS5003;51986;52.788;41.368;2023-04-21T06:59:31;33.00;27.50;22.50
65383;PMS5003;51986;52.788;41.368;2023-04-21T07:01:59;30.00;25.00;20.75
65383;PMS5003;51986;52.788;41.368;2023-04-21T07:04:26;29.50;25.00;21.00
65383;PMS5003;51986;52.788;41.368;2023-04-21T07:06:53;30.50;26.50;21.00
65383;PMS5003;51986;52.788;41.368;2023-04-21T07:09:23;32.00;26.25;21.00
65383;PMS5003;51986;52.788;41.368;2023-04-21T07:11:49;32.00;26.50;21.00
65383;PMS5003;51986;52.788;41.368;2023-04-21T07:14:16;31.00;27.00;21.25
65383;PMS5003;51986;52.788;41.368;2023-04-21T07:16:44;34.00;28.75;23.00
65383;PMS5003;51986;52.788;41.368;2023-04-21T07:19:30;28.00;25.00;20.75
65383;PMS5003;51986;52.788;41.368;2023-04-21T07:21:56;29.00;25.00;20.00
65383;PMS5003;51986;52.788;41.368;2023-04-21T07:24:33;29.25;25.00;21.00
65383;PMS5003;51986;52.788;41.368;2023-04-21T07:27:00;26.50;23.50;20.00
65383;PMS5003;51986;52.788;41.368;2023-04-21T07:29:27;32.00;27.25;22.00
65383;PMS5003;51986;52.788;41.368;2023-04-21T07:31:54;31.50;26.50;21.50
65383;PMS5003;51986;52.788;41.368;2023-04-21T07:34:21;32.75;27.50;22.00
65383;PMS5003;51986;52.788;41.368;2023-04-21T07:36:49;32.50;27.50;21.50
65383;PMS5003;51986;52.788;41.368;2023-04-21T07:39:21;34.50;29.00;23.00
65383;PMS5003;51986;52.788;41.368;2023-04-21T07:41:48;31.00;27.00;22.00
65383;PMS5003;51986;52.788;41.368;2023-04-21T07:44:15;32.50;27.50;22.00
65383;PMS5003;51986;52.788;41.368;2023-04-21T07:47:00;25.00;22.75;19.00
65383;PMS5003;51986;52.788;41.368;2023-04-21T07:49:27;26.00;23.50;19.50
65383;PMS5003;51986;52.788;41.368;2023-04-21T07:51:54;26.50;24.50;20.00
65383;PMS5003;51986;52.788;41.368;2023-04-21T07:54:21;30.00;26.50;21.00
65383;PMS5003;51986;52.788;41.368;2023-04-21T07:56:48;32.25;28.00;22.00
65383;PMS5003;51986;52.788;41.368;2023-04-21T07:59:15;33.00;28.00;22.00
65383;PMS5003;51986;52.788;41.368;2023-04-21T08:02:01;32.00;27.25;22.00
65383;PMS5003;51986;52.788;41.368;2023-04-21T08:04:28;33.00;28.00;22.00
65383;PMS5003;51986;52.788;41.368;2023-04-21T08:06:56;33.00;27.00;22.00
65383;PMS5003;51986;52.788;41.368;2023-04-21T08:09:23;31.50;26.75;21.50
65383;PMS5003;51986;52.788;41.368;2023-04-21T08:11:50;31.00;26.75;21.00
65383;PMS5003;51986;52.788;41.368;2023-04-21T08:14:25;31.50;27.00;21.00
65383;PMS5003;51986;52.788;41.368;2023-04-21T08:16:52;30.00;25.75;20.50
65383;PMS5003;51986;52.788;41.368;2023-04-21T08:19:38;28.00;25.00;20.00
65383;PMS5003;51986;52.788;41.368;2023-04-21T08:22:05;30.00;26.25;21.00
65383;PMS5003;51986;52.788;41.368;2023-04-21T08:24:51;27.50;24.75;19.75
65383;PMS5003;51986;52.788;41.368;2023-04-21T08:27:17;32.00;27.00;22.00
65383;PMS5003;51986;52.788;41.368;2023-04-21T08:29:48;31.00;25.00;20.00
65383;PMS5003;51986;52.788;41.368;2023-04-21T08:32:15;26.00;23.50;19.00
65383;PMS5003;51986;52.788;41.368;2023-04-21T08:34:42;30.50;25.50;21.50
65383;PMS5003;51986;52.788;41.368;2023-04-21T08:37:09;30.00;26.00;21.00
65383;PMS5003;51986;52.788;41.368;2023-04-21T08:39:36;25.25;23.00;19.50
65383;PMS5003;51986;52.788;41.368;2023-04-21T08:42:03;28.00;24.50;20.50
65383;PMS5003;51986;52.788;41.368;2023-04-21T08:44:31;33.00;27.75;22.00
65383;PMS5003;51986;52.788;41.368;2023-04-21T08:46:58;32.50;27.50;22.50
65383;PMS5003;51986;52.788;41.368;2023-04-21T08:49:30;33.00;28.50;23.00
65383;PMS5003;51986;52.788;41.368;2023-04-21T08:51:59;28.75;25.00;20.00
65383;PMS5003;51986;52.788;41.368;2023-04-21T08:54:26;27.25;24.00;19.25
65383;PMS5003;51986;52.788;41.368;2023-04-21T08:56:55;31.50;27.00;22.00
65383;PMS5003;51986;52.788;41.368;2023-04-21T08:59:37;29.00;25.00;20.25
65383;PMS5003;51986;52.788;41.368;2023-04-21T09:02:08;27.00;24.00;20.00
65383;PMS5003;51986;52.788;41.368;2023-04-21T09:04:39;29.25;25.25;20.75
65383;PMS5003;51986;52.788;41.368;2023-04-21T09:07:11;31.00;27.00;22.00
65383;PMS5003;51986;52.788;41.368;2023-04-21T09:10:11;31.00;26.00;21.50
65383;PMS5003;51986;52.788;41.368;2023-04-21T09:12:34;24.00;22.00;19.00
65383;PMS5003;51986;52.788;41.368;2023-04-21T09:15:04;27.50;24.50;19.50
65383;PMS5003;51986;52.788;41.368;2023-04-21T09:17:31;23.25;22.00;18.50
65383;PMS5003;51986;52.788;41.368;2023-04-21T09:20:15;27.50;25.00;20.25
65383;PMS5003;51986;52.788;41.368;2023-04-21T09:22:47;26.25;24.00;20.00
65383;PMS5003;51986;52.788;41.368;2023-04-21T09:25:15;29.50;26.50;22.00
65383;PMS5003;51986;52.788;41.368;2023-04-21T09:27:43;28.00;25.00;21.00
65383;PMS5003;51986;52.788;41.368;2023-04-21T09:30:10;30.00;26.00;21.00
65383;PMS5003;51986;52.788;41.368;2023-04-21T09:32:38;31.25;27.00;22.00
65383;PMS5003;51986;52.788;41.368;2023-04-21T09:35:09;30.00;26.00;21.50
65383;PMS5003;51986;52.788;41.368;2023-04-21T09:37:37;23.75;22.00;18.50
65383;PMS5003;51986;52.788;41.368;2023-04-21T09:40:05;27.00;24.50;20.00
65383;PMS5003;51986;52.788;41.368;2023-04-21T09:42:32;25.00;23.00;19.50
65383;PMS5003;51986;52.788;41.368;2023-04-21T09:45:05;28.50;25.00;21.00
65383;PMS5003;51986;52.788;41.368;2023-04-21T09:47:55;32.50;27.50;22.00
65383;PMS5003;51986;52.788;41.368;2023-04-21T09:50:25;33.00;27.00;22.00
65383;PMS5003;51986;52.788;41.368;2023-04-21T09:53:14;29.00;25.00;21.00
65383;PMS5003;51986;52.788;41.368;2023-04-21T09:56:20;28.50;25.00;20.25
65383;PMS5003;51986;52.788;41.368;2023-04-21T09:58:54;29.00;25.75;21.50
65383;PMS5003;51986;52.788;41.368;2023-04-21T10:01:25;30.25;26.00;21.00
65383;PMS5003;51986;52.788;41.368;2023-04-21T10:03:54;30.00;25.50;21.00
65383;PMS5003;51986;52.788;41.368;2023-04-21T10:06:22;28.00;25.00;20.00
65383;PMS5003;51986;52.788;41.368;2023-04-21T10:09:08;30.00;27.00;22.00
65383;PMS5003;51986;52.788;41.368;2023-04-21T10:11:56;29.25;26.00;21.00
65383;PMS5003;51986;52.788;41.368;2023-04-21T10:14:26;30.00;26.00;21.25
65383;PMS5003;51986;52.788;41.368;2023-04-21T10:17:03;29.00;25.00;20.00
65383;PMS5003;51986;52.788;41.368;2023-04-21T10:19:31;32.00;27.00;22.00
65383;PMS5003;51986;52.788;41.368;2023-04-21T10:22:00;31.00;26.00;21.50
65383;PMS5003;51986;52.788;41.368;2023-04-21T10:24:28;31.50;26.00;22.00
65383;PMS5003;51986;52.788;41.368;2023-04-21T10:26:58;30.00;26.00;22.00
65383;PMS5003;51986;52.788;41.368;2023-04-21T10:29:44;30.50;26.75;22.00
65383;PMS5003;51986;52.788;41.368;2023-04-21T10:32:40;32.75;27.25;22.00
65383;PMS5003;51986;52.788;41.368;2023-04-21T10:35:09;28.50;25.00;20.00
65383;PMS5003;51986;52.788;41.368;2023-04-21T10:37:41;32.00;27.00;22.00
65383;PMS5003;51986;52.788;41.368;2023-04-21T10:40:32;28.25;25.00;20.00
65383;PMS5003;51986;52.788;41.368;2023-04-21T10:49:06;29.50;26.00;21.00
65383;PMS5003;51986;52.788;41.368;2023-04-21T10:54:29;31.00;27.00;21.25
65383;PMS5003;51986;52.788;41.368;2023-04-21T10:57:10;30.00;26.00;21.00
65383;PMS5003;51986;52.788;41.368;2023-04-21T11:02:32;32.00;27.00;22.00
65383;PMS5003;51986;52.788;41.368;2023-04-21T11:05:09;29.25;25.25;21.00
65383;PMS5003;51986;52.788;41.368;2023-04-21T11:07:38;30.00;27.00;22.00
65383;PMS5003;51986;52.788;41.368;2023-04-21T11:10:09;29.00;25.50;21.00
65383;PMS5003;51986;52.788;41.368;2023-04-21T11:12:56;31.50;27.00;21.50
65383;PMS5003;51986;52.788;41.368;2023-04-21T11:15:23;31.50;27.00;22.00
65383;PMS5003;51986;52.788;41.368;2023-04-21T11:17:50;30.50;26.00;21.00
65383;PMS5003;51986;52.788;41.368;2023-04-21T11:20:17;29.25;24.25;20.75
65383;PMS5003;51986;52.788;41.368;2023-04-21T11:22:44;27.00;23.00;19.00
65383;PMS5003;51986;52.788;41.368;2023-04-21T11:25:18;23.00;22.00;18.50
65383;PMS5003;51986;52.788;41.368;2023-04-21T11:27:53;26.50;24.50;20.00
65383;PMS5003;51986;52.788;41.368;2023-04-21T11:30:30;26.00;24.00;20.00
65383;PMS5003;51986;52.788;41.368;2023-04-21T11:32:59;27.50;24.00;19.75
65383;PMS5003;51986;52.788;41.368;2023-04-21T11:35:26;29.25;25.25;21.50
65383;PMS5003;51986;52.788;41.368;2023-04-21T11:37:56;30.25;26.00;21.50
65383;PMS5003;51986;52.788;41.368;2023-04-21T11:40:23;30.75;26.00;21.00
65383;PMS5003;51986;52.788;41.368;2023-04-21T11:42:50;30.00;26.50;21.50
65383;PMS5003;51986;52.788;41.368;2023-04-21T11:45:18;30.25;26.25;21.50
65383;PMS5003;51986;52.788;41.368;2023-04-21T11:47:48;32.00;28.00;22.00
65383;PMS5003;51986;52.788;41.368;2023-04-21T11:53:02;27.00;24.00;19.25
65383;PMS5003;51986;52.788;41.368;2023-04-21T11:55:29;29.50;26.50;21.00
65383;PMS5003;51986;52.788;41.368;2023-04-21T11:57:56;30.50;25.50;21.50
65383;PMS5003;51986;52.788;41.368;2023-04-21T12:00:45;31.00;26.00;21.00
65383;PMS5003;51986;52.788;41.368;2023-04-21T12:03:12;27.00;24.00;20.00
65383;PMS5003;51986;52.788;41.368;2023-04-21T12:05:58;28.00;25.00;20.00
65383;PMS5003;51986;52.788;41.368;2023-04-21T12:08:30;28.25;25.00;20.00
65383;PMS5003;51986;52.788;41.368;2023-04-21T12:10:57;28.25;25.00;20.00
65383;PMS5003;51986;52.788;41.368;2023-04-21T12:13:43;30.00;26.00;21.00
65383;PMS5003;51986;52.788;41.368;2023-04-21T12:16:11;32.00;27.00;22.00
65383;PMS5003;51986;52.788;41.368;2023-04-21T12:18:38;26.50;24.00;19.75
65383;PMS5003;51986;52.788;41.368;2023-04-21T12:21:05;31.75;26.75;22.00
65383;PMS5003;51986;52.788;41.368;2023-04-21T12:23:32;32.00;27.25;23.00
65383;PMS5003;51986;52.788;41.368;2023-04-21T12:25:59;32.25;27.25;23.00
65383;PMS5003;51986;52.788;41.368;2023-04-21T12:28:45;27.25;24.00;20.00
65383;PMS5003;51986;52.788;41.368;2023-04-21T12:31:12;28.50;25.25;21.00
65383;PMS5003;51986;52.788;41.368;2023-04-21T12:33:39;29.00;25.50;21.00
65383;PMS5003;51986;52.788;41.368;2023-04-21T12:36:06;26.25;24.00;20.00
65383;PMS5003;51986;52.788;41.368;2023-04-21T12:38:34;26.75;23.75;19.00
65383;PMS5003;51986;52.788;41.368;2023-04-21T12:41:01;30.00;25.00;20.50
65383;PMS5003;51986;52.788;41.368;2023-04-21T12:43:30;27.00;24.00;19.00
65383;PMS5003;51986;52.788;41.368;2023-04-21T12:45:58;29.50;26.00;21.00
65383;PMS5003;51986;52.788;41.368;2023-04-21T12:48:44;29.00;25.50;21.25
65383;PMS5003;51986;52.788;41.368;2023-04-21T12:51:11;26.00;23.25;19.00
65383;PMS5003;51986;52.788;41.368;2023-04-21T12:53:38;27.75;23.00;19.75
65383;PMS5003;51986;52.788;41.368;2023-04-21T12:56:05;28.00;23.00;19.00
65383;PMS5003;51986;52.788;41.368;2023-04-21T12:58:32;28.50;25.00;20.75
65383;PMS5003;51986;52.788;41.368;2023-04-21T13:00:59;28.00;25.00;20.50
65383;PMS5003;51986;52.788;41.368;2023-04-21T13:03:26;30.75;26.00;20.50
65383;PMS5003;51986;52.788;41.368;2023-04-21T13:06:12;28.00;24.00;19.00
65383;PMS5003;51986;52.788;41.368;2023-04-21T13:08:39;29.50;25.00;21.00
65383;PMS5003;51986;52.788;41.368;2023-04-21T13:11:06;25.50;23.00;19.00
65383;PMS5003;51986;52.788;41.368;2023-04-21T13:16:56;25.00;23.00;19.00
65383;PMS5003;51986;52.788;41.368;2023-04-21T13:19:23;30.00;26.00;21.75
65383;PMS5003;51986;52.788;41.368;2023-04-21T13:21:51;31.00;26.75;22.00
65383;PMS5003;51986;52.788;41.368;2023-04-21T13:24:20;28.00;25.00;21.00
65383;PMS5003;51986;52.788;41.368;2023-04-21T13:26:47;26.00;24.00;20.00
65383;PMS5003;51986;52.788;41.368;2023-04-21T13:29:14;27.00;24.00;20.00
65383;PMS5003;51986;52.788;41.368;2023-04-21T13:31:44;29.75;25.50;21.00
65383;PMS5003;51986;52.788;41.368;2023-04-21T13:34:11;27.25;24.00;20.00
65383;PMS5003;51986;52.788;41.368;2023-04-21T13:36:41;27.50;24.50;20.50
65383;PMS5003;51986;52.788;41.368;2023-04-21T13:39:08;28.75;25.00;21.00
65383;PMS5003;51986;52.788;41.368;2023-04-21T13:41:37;30.50;26.00;21.00
65383;PMS5003;51986;52.788;41.368;2023-04-21T13:44:22;30.00;26.00;20.50
65383;PMS5003;51986;52.788;41.368;2023-04-21T13:46:49;30.00;26.00;21.00
65383;PMS5003;51986;52.788;41.368;2023-04-21T13:52:02;29.50;25.50;20.50
65383;PMS5003;51986;52.788;41.368;2023-04-21T13:54:29;31.00;27.00;21.75
65383;PMS5003;51986;52.788;41.368;2023-04-21T13:56:57;30.00;25.75;21.00
65383;PMS5003;51986;52.788;41.368;2023-04-21T13:59:24;30.50;26.50;21.50
65383;PMS5003;51986;52.788;41.368;2023-04-21T14:01:51;31.00;27.00;22.00
65383;PMS5003;51986;52.788;41.368;2023-04-21T14:04:18;30.50;27.00;22.00
65383;PMS5003;51986;52.788;41.368;2023-04-21T14:06:47;26.50;24.00;20.00
65383;PMS5003;51986;52.788;41.368;2023-04-21T14:12:01;29.25;26.00;21.50